sensor_id;sensor_type;location;lat;lon;timestamp;temperature;humidity
13652;DHT22;6899;51.546;6.912;2023-03-01T00:01:14;-3.50;99.90
13652;DHT22;6899;51.546;6.912;2023-03-01T00:03:40;-3.50;99.90
13652;DHT22;6899;51.546;6.912;2023-03-01T00:06:07;-3.50;99.90
13652;DHT22;6899;51.546;6.912;2023-03-01T00:08:35;-3.60;99.90
13652;DHT22;6899;51.546;6.912;2023-03-01T00:11:05;-3.60;99.90
13652;DHT22;6899;51.546;6.912;2023-03-01T00:13:32;-3.70;99.90
13652;DHT22;6899;51.546;6.912;2023-03-01T00:16:04;-3.70;99.90
13652;DHT22;6899;51.546;6.912;2023-03-01T00:18:31;-3.80;99.90
13652;DHT22;6899;51.546;6.912;2023-03-01T00:20:59;-3.70;99.90
13652;DHT22;6899;51.546;6.912;2023-03-01T00:23:26;-3.80;99.90
13652;DHT22;6899;51.546;6.912;2023-03-01T00:25:53;-3.70;99.90
13652;DHT22;6899;51.546;6.912;2023-03-01T00:28:24;-3.90;99.90
13652;DHT22;6899;51.546;6.912;2023-03-01T00:30:51;-4.00;99.90
13652;DHT22;6899;51.546;6.912;2023-03-01T00:33:19;-4.00;99.90
13652;DHT22;6899;51.546;6.912;2023-03-01T00:35:46;-3.90;99.90
13652;DHT22;6899;51.546;6.912;2023-03-01T00:38:13;-3.90;99.90
13652;DHT22;6899;51.546;6.912;2023-03-01T00:40:45;-3.90;99.90
13652;DHT22;6899;51.546;6.912;2023-03-01T00:43:12;-3.90;99.90
13652;DHT22;6899;51.546;6.912;2023-03-01T00:45:39;-3.90;99.90
13652;DHT22;6899;51.546;6.912;2023-03-01T00:48:06;-4.00;99.90
13652;DHT22;6899;51.546;6.912;2023-03-01T00:50:37;-4.00;99.90
13652;DHT22;6899;51.546;6.912;2023-03-01T00:53:04;-4.10;99.90
13652;DHT22;6899;51.546;6.912;2023-03-01T00:55:31;-4.00;99.90
13652;DHT22;6899;51.546;6.912;2023-03-01T00:57:58;-4.10;99.90
13652;DHT22;6899;51.546;6.912;2023-03-01T01:00:25;-3.90;99.90
13652;DHT22;6899;51.546;6.912;2023-03-01T01:02:53;-3.80;99.90
13652;DHT22;6899;51.546;6.912;2023-03-01T01:05:23;-3.90;99.90
13652;DHT22;6899;51.546;6.912;2023-03-01T01:07:51;-4.00;99.90
13652;DHT22;6899;51.546;6.912;2023-03-01T01:10:18;-4.00;99.90
13652;DHT22;6899;51.546;6.912;2023-03-01T01:12:48;-4.10;99.90
13652;DHT22;6899;51.546;6.912;2023-03-01T01:26:32;-4.00;99.90
13652;DHT22;6899;51.546;6.912;2023-03-01T01:29:01;-4.20;99.90
13652;DHT22;6899;51.546;6.912;2023-03-01T01:31:28;-4.20;99.90
13652;DHT22;6899;51.546;6.912;2023-03-01T01:33:56;-4.20;99.90
13652;DHT22;6899;51.546;6.912;2023-03-01T01:36:23;-4.20;99.90
13652;DHT22;6899;51.546;6.912;2023-03-01T01:38:50;-4.20;99.90
13652;DHT22;6899;51.546;6.912;2023-03-01T01:41:21;-4.20;99.90
13652;DHT22;6899;51.546;6.912;2023-03-01T01:44:11;-4.30;99.90
13652;DHT22;6899;51.546;6.912;2023-03-01T01:46:39;-4.30;99.90
13652;DHT22;6899;51.546;6.912;2023-03-01T01:49:16;-4.20;99.90
13652;DHT22;6899;51.546;6.912;2023-03-01T01:51:47;-4.30;99.90
13652;DHT22;6899;51.546;6.912;2023-03-01T01:54:23;-4.10;99.90
13652;DHT22;6899;51.546;6.912;2023-03-01T01:56:55;-4.10;99.90
13652;DHT22;6899;51.546;6.912;2023-03-01T01:59:26;-4.00;99.90
13652;DHT22;6899;51.546;6.912;2023-03-01T02:02:02;-4.10;99.90
13652;DHT22;6899;51.546;6.912;2023-03-01T02:04:31;-4.10;99.90
13652;DHT22;6899;51.546;6.912;2023-03-01T02:07:06;-4.10;99.90
13652;DHT22;6899;51.546;6.912;2023-03-01T02:09:37;-4.10;99.90
13652;DHT22;6899;51.546;6.912;2023-03-01T02:12:05;-4.10;99.90
13652;DHT22;6899;51.546;6.912;2023-03-01T02:14:33;-4.20;99.90
13652;DHT22;6899;51.546;6.912;2023-03-01T02:17:00;-4.20;99.90
13652;DHT22;6899;51.546;6.912;2023-03-01T02:19:38;-4.30;99.90
13652;DHT22;6899;51.546;6.912;2023-03-01T02:22:15;-4.20;99.90
13652;DHT22;6899;51.546;6.912;2023-03-01T02:24:53;-4.20;99.90
13652;DHT22;6899;51.546;6.912;2023-03-01T02:27:30;-4.30;99.90
13652;DHT22;6899;51.546;6.912;2023-03-01T02:30:04;-4.20;99.90
13652;DHT22;6899;51.546;6.912;2023-03-01T02:32:44;-4.20;99.90
13652;DHT22;6899;51.546;6.912;2023-03-01T02:35:13;-4.30;99.90
13652;DHT22;6899;51.546;6.912;2023-03-01T02:37:42;-4.30;99.90
13652;DHT22;6899;51.546;6.912;2023-03-01T02:40:14;-4.40;99.90
13652;DHT22;6899;51.546;6.912;2023-03-01T02:42:49;-4.50;99.90
13652;DHT22;6899;51.546;6.912;2023-03-01T02:45:21;-4.40;99.90
13652;DHT22;6899;51.546;6.912;2023-03-01T02:47:49;-4.30;99.90
13652;DHT22;6899;51.546;6.912;2023-03-01T02:50:29;-4.40;99.90
13652;DHT22;6899;51.546;6.912;2023-03-01T02:53:08;-4.40;99.90
13652;DHT22;6899;51.546;6.912;2023-03-01T02:55:37;-4.40;99.90
13652;DHT22;6899;51.546;6.912;2023-03-01T02:58:05;-4.40;99.90
13652;DHT22;6899;51.546;6.912;2023-03-01T03:00:36;-4.40;99.90
13652;DHT22;6899;51.546;6.912;2023-03-01T03:03:06;-4.40;99.90
13652;DHT22;6899;51.546;6.912;2023-03-01T03:05:36;-4.40;99.90
13652;DHT22;6899;51.546;6.912;2023-03-01T03:08:03;-4.50;99.90
13652;DHT22;6899;51.546;6.912;2023-03-01T03:10:35;-4.60;99.90
13652;DHT22;6899;51.546;6.912;2023-03-01T03:13:14;-4.60;99.90
13652;DHT22;6899;51.546;6.912;2023-03-01T03:15:44;-4.60;99.90
13652;DHT22;6899;51.546;6.912;2023-03-01T03:18:13;-4.60;99.90
13652;DHT22;6899;51.546;6.912;2023-03-01T03:20:42;-4.70;99.90
13652;DHT22;6899;51.546;6.912;2023-03-01T03:23:13;-4.70;99.90
13652;DHT22;6899;51.546;6.912;2023-03-01T03:25:53;-4.70;99.90
13652;DHT22;6899;51.546;6.912;2023-03-01T03:28:23;-4.80;99.90
13652;DHT22;6899;51.546;6.912;2023-03-01T03:31:08;-4.80;99.90
13652;DHT22;6899;51.546;6.912;2023-03-01T03:33:43;-4.90;99.90
13652;DHT22;6899;51.546;6.912;2023-03-01T03:36:15;-4.70;99.90
13652;DHT22;6899;51.546;6.912;2023-03-01T03:38:45;-4.80;99.90
13652;DHT22;6899;51.546;6.912;2023-03-01T03:41:25;-4.80;99.90
13652;DHT22;6899;51.546;6.912;2023-03-01T03:43:53;-4.80;99.90
13652;DHT22;6899;51.546;6.912;2023-03-01T03:46:22;-4.80;99.90
13652;DHT22;6899;51.546;6.912;2023-03-01T03:48:51;-4.80;99.90
13652;DHT22;6899;51.546;6.912;2023-03-01T03:51:19;-4.90;99.90
13652;DHT22;6899;51.546;6.912;2023-03-01T03:53:51;-4.80;99.90
13652;DHT22;6899;51.546;6.912;2023-03-01T03:56:19;-4.80;99.90
13652;DHT22;6899;51.546;6.912;2023-03-01T03:58:47;-4.90;99.90
13652;DHT22;6899;51.546;6.912;2023-03-01T04:01:17;-4.90;99.90
13652;DHT22;6899;51.546;6.912;2023-03-01T04:03:47;-4.90;99.90
13652;DHT22;6899;51.546;6.912;2023-03-01T04:06:20;-5.00;99.90
13652;DHT22;6899;51.546;6.912;2023-03-01T04:08:49;-4.90;99.90
13652;DHT22;6899;51.546;6.912;2023-03-01T04:11:23;-4.90;99.90
13652;DHT22;6899;51.546;6.912;2023-03-01T04:13:55;-4.80;99.90
13652;DHT22;6899;51.546;6.912;2023-03-01T04:16:23;-4.80;99.90
13652;DHT22;6899;51.546;6.912;2023-03-01T04:18:52;-4.90;99.90
13652;DHT22;6899;51.546;6.912;2023-03-01T04:21:20;-5.00;99.90
13652;DHT22;6899;51.546;6.912;2023-03-01T04:23:48;-4.90;99.90
13652;DHT22;6899;51.546;6.912;2023-03-01T04:26:18;-4.90;99.90
13652;DHT22;6899;51.546;6.912;2023-03-01T04:28:45;-4.90;99.90
13652;DHT22;6899;51.546;6.912;2023-03-01T04:31:16;-4.90;99.90
13652;DHT22;6899;51.546;6.912;2023-03-01T04:33:48;-4.90;99.90
13652;DHT22;6899;51.546;6.912;2023-03-01T04:36:19;-4.90;99.90
13652;DHT22;6899;51.546;6.912;2023-03-01T04:38:53;-4.80;99.90
13652;DHT22;6899;51.546;6.912;2023-03-01T04:41:22;-4.80;99.90
13652;DHT22;6899;51.546;6.912;2023-03-01T04:43:49;-4.80;99.90
13652;DHT22;6899;51.546;6.912;2023-03-01T04:46:21;-4.80;99.90
13652;DHT22;6899;51.546;6.912;2023-03-01T04:48:51;-4.90;99.90
13652;DHT22;6899;51.546;6.912;2023-03-01T04:51:20;-4.80;99.90
13652;DHT22;6899;51.546;6.912;2023-03-01T04:53:47;-4.70;99.90
13652;DHT22;6899;51.546;6.912;2023-03-01T04:56:14;-4.70;99.90
13652;DHT22;6899;51.546;6.912;2023-03-01T04:58:44;-4.80;99.90
13652;DHT22;6899;51.546;6.912;2023-03-01T05:01:12;-4.80;99.90
13652;DHT22;6899;51.546;6.912;2023-03-01T05:03:42;-4.70;99.90
13652;DHT22;6899;51.546;6.912;2023-03-01T05:06:15;-4.90;99.90
13652;DHT22;6899;51.546;6.912;2023-03-01T05:09:25;-4.80;99.90
13652;DHT22;6899;51.546;6.912;2023-03-01T05:11:55;-4.90;99.90
13652;DHT22;6899;51.546;6.912;2023-03-01T05:14:41;-4.90;99.90
13652;DHT22;6899;51.546;6.912;2023-03-01T05:17:13;-4.90;99.90
13652;DHT22;6899;51.546;6.912;2023-03-01T05:19:59;-5.00;99.90
13652;DHT22;6899;51.546;6.912;2023-03-01T05:22:39;-5.00;99.90
13652;DHT22;6899;51.546;6.912;2023-03-01T05:25:17;-4.90;99.90
13652;DHT22;6899;51.546;6.912;2023-03-01T05:27:49;-4.90;99.90
13652;DHT22;6899;51.546;6.912;2023-03-01T05:30:22;-4.80;99.90
13652;DHT22;6899;51.546;6.912;2023-03-01T05:32:58;-4.90;99.90
13652;DHT22;6899;51.546;6.912;2023-03-01T05:35:34;-4.80;99.90
13652;DHT22;6899;51.546;6.912;2023-03-01T05:38:03;-4.90;99.90
13652;DHT22;6899;51.546;6.912;2023-03-01T05:44:25;-5.00;99.90
13652;DHT22;6899;51.546;6.912;2023-03-01T05:46:52;-4.80;99.90
13652;DHT22;6899;51.546;6.912;2023-03-01T05:49:52;-4.80;99.90
13652;DHT22;6899;51.546;6.912;2023-03-01T05:53:05;-4.80;99.90
13652;DHT22;6899;51.546;6.912;2023-03-01T05:55:53;-4.80;99.90
13652;DHT22;6899;51.546;6.912;2023-03-01T05:58:23;-4.80;99.90
13652;DHT22;6899;51.546;6.912;2023-03-01T06:00:54;-4.90;99.90
13652;DHT22;6899;51.546;6.912;2023-03-01T06:03:25;-4.90;99.90
13652;DHT22;6899;51.546;6.912;2023-03-01T06:06:04;-4.90;99.90
13652;DHT22;6899;51.546;6.912;2023-03-01T06:08:31;-4.90;99.90
13652;DHT22;6899;51.546;6.912;2023-03-01T06:11:06;-4.90;99.90
13652;DHT22;6899;51.546;6.912;2023-03-01T06:13:43;-4.90;99.90
13652;DHT22;6899;51.546;6.912;2023-03-01T06:16:12;-4.80;99.90
13652;DHT22;6899;51.546;6.912;2023-03-01T06:18:54;-4.90;99.90
13652;DHT22;6899;51.546;6.912;2023-03-01T06:21:24;-4.90;99.90
13652;DHT22;6899;51.546;6.912;2023-03-01T06:23:51;-4.80;99.90
13652;DHT22;6899;51.546;6.912;2023-03-01T06:26:24;-4.80;99.90
13652;DHT22;6899;51.546;6.912;2023-03-01T06:28:57;-4.70;99.90
13652;DHT22;6899;51.546;6.912;2023-03-01T06:31:25;-4.70;99.90
13652;DHT22;6899;51.546;6.912;2023-03-01T06:33:52;-4.70;99.90
13652;DHT22;6899;51.546;6.912;2023-03-01T06:36:19;-4.70;99.90
13652;DHT22;6899;51.546;6.912;2023-03-01T06:38:47;-4.70;99.90
13652;DHT22;6899;51.546;6.912;2023-03-01T06:41:14;-4.60;99.90
13652;DHT22;6899;51.546;6.912;2023-03-01T06:43:40;-4.60;99.90
13652;DHT22;6899;51.546;6.912;2023-03-01T06:46:07;-4.50;99.90
13652;DHT22;6899;51.546;6.912;2023-03-01T06:48:35;-4.50;99.90
13652;DHT22;6899;51.546;6.912;2023-03-01T06:51:03;-4.30;99.90
13652;DHT22;6899;51.546;6.912;2023-03-01T06:53:30;-4.20;99.90
13652;DHT22;6899;51.546;6.912;2023-03-01T06:55:57;-4.10;99.90
13652;DHT22;6899;51.546;6.912;2023-03-01T06:58:25;-4.00;99.90
13652;DHT22;6899;51.546;6.912;2023-03-01T07:00:52;-3.70;99.90
13652;DHT22;6899;51.546;6.912;2023-03-01T07:03:19;-3.50;99.90
13652;DHT22;6899;51.546;6.912;2023-03-01T07:05:48;-3.30;99.90
13652;DHT22;6899;51.546;6.912;2023-03-01T07:08:17;-3.00;99.90
13652;DHT22;6899;51.546;6.912;2023-03-01T07:10:44;-2.70;99.90
13652;DHT22;6899;51.546;6.912;2023-03-01T07:13:11;-2.60;99.90
13652;DHT22;6899;51.546;6.912;2023-03-01T07:15:40;-2.40;99.90
13652;DHT22;6899;51.546;6.912;2023-03-01T07:18:07;-2.40;99.90
13652;DHT22;6899;51.546;6.912;2023-03-01T07:20:34;-2.30;99.90
13652;DHT22;6899;51.546;6.912;2023-03-01T07:23:02;-2.30;99.90
13652;DHT22;6899;51.546;6.912;2023-03-01T07:25:29;-2.10;1.00
13652;DHT22;6899;51.546;6.912;2023-03-01T07:27:56;-2.00;99.90
13652;DHT22;6899;51.546;6.912;2023-03-01T07:30:23;-1.80;99.90
13652;DHT22;6899;51.546;6.912;2023-03-01T07:32:51;-1.70;99.90
13652;DHT22;6899;51.546;6.912;2023-03-01T07:35:18;-1.60;99.90
13652;DHT22;6899;51.546;6.912;2023-03-01T07:37:45;-1.50;99.90
13652;DHT22;6899;51.546;6.912;2023-03-01T07:40:13;-1.50;91.20
13652;DHT22;6899;51.546;6.912;2023-03-01T07:42:40;-1.50;94.30
13652;DHT22;6899;51.546;6.912;2023-03-01T07:45:08;-1.40;79.30
13652;DHT22;6899;51.546;6.912;2023-03-01T07:47:34;-1.40;88.60
13652;DHT22;6899;51.546;6.912;2023-03-01T07:50:02;-1.40;99.90
13652;DHT22;6899;51.546;6.912;2023-03-01T07:52:29;-1.20;95.30
13652;DHT22;6899;51.546;6.912;2023-03-01T07:54:56;-1.20;40.30
13652;DHT22;6899;51.546;6.912;2023-03-01T07:57:25;-1.10;3.10
13652;DHT22;6899;51.546;6.912;2023-03-01T07:59:52;-1.00;35.40
13652;DHT22;6899;51.546;6.912;2023-03-01T08:02:18;-0.90;1.00
13652;DHT22;6899;51.546;6.912;2023-03-01T08:04:45;-0.80;99.90
13652;DHT22;6899;51.546;6.912;2023-03-01T08:07:12;-0.60;99.90
13652;DHT22;6899;51.546;6.912;2023-03-01T08:09:39;-0.50;99.90
13652;DHT22;6899;51.546;6.912;2023-03-01T08:12:06;-0.30;55.20
13652;DHT22;6899;51.546;6.912;2023-03-01T08:14:34;-0.20;1.00
13652;DHT22;6899;51.546;6.912;2023-03-01T08:17:01;0.00;1.00
13652;DHT22;6899;51.546;6.912;2023-03-01T08:19:29;0.10;1.00
13652;DHT22;6899;51.546;6.912;2023-03-01T08:21:56;0.10;1.00
13652;DHT22;6899;51.546;6.912;2023-03-01T08:24:25;0.30;1.00
13652;DHT22;6899;51.546;6.912;2023-03-01T08:26:52;0.50;1.00
13652;DHT22;6899;51.546;6.912;2023-03-01T08:29:19;0.50;1.00
13652;DHT22;6899;51.546;6.912;2023-03-01T08:31:48;0.70;1.00
13652;DHT22;6899;51.546;6.912;2023-03-01T08:34:16;0.90;1.00
13652;DHT22;6899;51.546;6.912;2023-03-01T08:36:45;1.00;1.00
13652;DHT22;6899;51.546;6.912;2023-03-01T08:39:13;1.10;1.00
13652;DHT22;6899;51.546;6.912;2023-03-01T08:41:41;1.40;1.00
13652;DHT22;6899;51.546;6.912;2023-03-01T08:44:09;1.40;1.00
13652;DHT22;6899;51.546;6.912;2023-03-01T08:46:38;1.50;1.00
13652;DHT22;6899;51.546;6.912;2023-03-01T08:49:08;1.60;1.00
13652;DHT22;6899;51.546;6.912;2023-03-01T08:51:35;1.70;1.00
13652;DHT22;6899;51.546;6.912;2023-03-01T08:54:03;1.70;1.00
13652;DHT22;6899;51.546;6.912;2023-03-01T08:56:30;1.80;1.00
13652;DHT22;6899;51.546;6.912;2023-03-01T08:58:57;1.90;1.00
13652;DHT22;6899;51.546;6.912;2023-03-01T09:01:24;2.20;1.00
13652;DHT22;6899;51.546;6.912;2023-03-01T09:03:50;2.20;1.00
13652;DHT22;6899;51.546;6.912;2023-03-01T09:06:19;2.30;1.00
13652;DHT22;6899;51.546;6.912;2023-03-01T09:08:47;2.40;1.00
13652;DHT22;6899;51.546;6.912;2023-03-01T09:11:15;2.50;1.00
13652;DHT22;6899;51.546;6.912;2023-03-01T09:13:42;2.60;1.00
13652;DHT22;6899;51.546;6.912;2023-03-01T09:16:12;2.90;1.00
13652;DHT22;6899;51.546;6.912;2023-03-01T09:18:39;3.00;1.00
13652;DHT22;6899;51.546;6.912;2023-03-01T09:21:09;3.10;99.90
13652;DHT22;6899;51.546;6.912;2023-03-01T09:23:38;3.10;99.90
13652;DHT22;6899;51.546;6.912;2023-03-01T09:26:05;3.30;99.90
13652;DHT22;6899;51.546;6.912;2023-03-01T09:28:34;3.30;99.90
13652;DHT22;6899;51.546;6.912;2023-03-01T09:31:01;3.50;99.90
13652;DHT22;6899;51.546;6.912;2023-03-01T09:33:29;3.40;99.90
13652;DHT22;6899;51.546;6.912;2023-03-01T09:35:57;3.70;99.90
13652;DHT22;6899;51.546;6.912;2023-03-01T09:38:24;3.80;99.90
13652;DHT22;6899;51.546;6.912;2023-03-01T09:40:52;3.90;99.90
13652;DHT22;6899;51.546;6.912;2023-03-01T09:43:23;3.80;99.90
13652;DHT22;6899;51.546;6.912;2023-03-01T09:45:54;3.80;99.90
13652;DHT22;6899;51.546;6.912;2023-03-01T09:48:25;3.70;99.90
13652;DHT22;6899;51.546;6.912;2023-03-01T09:50:53;3.70;99.90
13652;DHT22;6899;51.546;6.912;2023-03-01T09:53:22;3.80;99.90
13652;DHT22;6899;51.546;6.912;2023-03-01T09:55:54;3.90;99.90
13652;DHT22;6899;51.546;6.912;2023-03-01T09:58:41;3.90;99.90
13652;DHT22;6899;51.546;6.912;2023-03-01T10:01:27;4.20;99.90
13652;DHT22;6899;51.546;6.912;2023-03-01T10:04:23;4.20;99.90
13652;DHT22;6899;51.546;6.912;2023-03-01T10:07:02;4.40;99.90
13652;DHT22;6899;51.546;6.912;2023-03-01T10:09:34;4.50;99.90
13652;DHT22;6899;51.546;6.912;2023-03-01T10:12:07;4.50;99.40
13652;DHT22;6899;51.546;6.912;2023-03-01T10:14:38;4.30;99.90
13652;DHT22;6899;51.546;6.912;2023-03-01T10:17:11;4.40;99.60
13652;DHT22;6899;51.546;6.912;2023-03-01T10:19:40;4.30;99.30
13652;DHT22;6899;51.546;6.912;2023-03-01T10:22:13;4.40;98.40
13652;DHT22;6899;51.546;6.912;2023-03-01T10:24:44;4.40;98.10
13652;DHT22;6899;51.546;6.912;2023-03-01T10:27:22;4.30;98.70
13652;DHT22;6899;51.546;6.912;2023-03-01T10:29:55;4.50;99.90
13652;DHT22;6899;51.546;6.912;2023-03-01T10:32:28;4.80;98.00
13652;DHT22;6899;51.546;6.912;2023-03-01T10:34:56;4.90;98.10
13652;DHT22;6899;51.546;6.912;2023-03-01T10:37:23;5.10;96.70
13652;DHT22;6899;51.546;6.912;2023-03-01T10:39:57;4.90;95.70
13652;DHT22;6899;51.546;6.912;2023-03-01T10:42:29;5.10;97.40
13652;DHT22;6899;51.546;6.912;2023-03-01T10:44:57;5.30;97.50
13652;DHT22;6899;51.546;6.912;2023-03-01T10:47:26;5.40;95.60
13652;DHT22;6899;51.546;6.912;2023-03-01T10:49:58;5.30;95.10
13652;DHT22;6899;51.546;6.912;2023-03-01T10:52:28;5.20;94.30
13652;DHT22;6899;51.546;6.912;2023-03-01T10:54:58;5.20;94.90
13652;DHT22;6899;51.546;6.912;2023-03-01T10:57:36;5.20;95.10
13652;DHT22;6899;51.546;6.912;2023-03-01T11:00:25;5.20;93.90
13652;DHT22;6899;51.546;6.912;2023-03-01T11:03:10;5.40;94.30
13652;DHT22;6899;51.546;6.912;2023-03-01T11:05:54;5.60;95.10
13652;DHT22;6899;51.546;6.912;2023-03-01T11:08:33;5.70;94.50
13652;DHT22;6899;51.546;6.912;2023-03-01T11:11:06;5.80;91.20
13652;DHT22;6899;51.546;6.912;2023-03-01T11:13:49;5.40;90.80
13652;DHT22;6899;51.546;6.912;2023-03-01T11:16:23;5.40;92.00
13652;DHT22;6899;51.546;6.912;2023-03-01T11:18:57;5.50;90.50
13652;DHT22;6899;51.546;6.912;2023-03-01T11:21:25;5.70;90.90
13652;DHT22;6899;51.546;6.912;2023-03-01T11:23:58;5.80;90.10
13652;DHT22;6899;51.546;6.912;2023-03-01T11:26:28;5.80;90.60
13652;DHT22;6899;51.546;6.912;2023-03-01T11:29:04;6.00;91.40
13652;DHT22;6899;51.546;6.912;2023-03-01T11:31:32;6.00;90.20
13652;DHT22;6899;51.546;6.912;2023-03-01T11:34:05;6.00;90.40
13652;DHT22;6899;51.546;6.912;2023-03-01T11:36:39;6.20;90.40
13652;DHT22;6899;51.546;6.912;2023-03-01T11:39:17;6.30;88.10
13652;DHT22;6899;51.546;6.912;2023-03-01T11:41:49;6.20;86.10
13652;DHT22;6899;51.546;6.912;2023-03-01T11:44:25;6.20;86.50
13652;DHT22;6899;51.546;6.912;2023-03-01T11:47:17;6.50;88.50
13652;DHT22;6899;51.546;6.912;2023-03-01T11:50:07;6.60;85.40
13652;DHT22;6899;51.546;6.912;2023-03-01T11:52:42;6.70;84.20
13652;DHT22;6899;51.546;6.912;2023-03-01T11:55:25;6.70;84.10
13652;DHT22;6899;51.546;6.912;2023-03-01T11:58:14;6.60;85.00
13652;DHT22;6899;51.546;6.912;2023-03-01T12:03:51;6.80;83.70
13652;DHT22;6899;51.546;6.912;2023-03-01T12:06:47;7.00;84.00
13652;DHT22;6899;51.546;6.912;2023-03-01T12:09:30;7.10;82.60
13652;DHT22;6899;51.546;6.912;2023-03-01T12:12:27;7.00;81.90
13652;DHT22;6899;51.546;6.912;2023-03-01T12:15:11;6.90;84.20
13652;DHT22;6899;51.546;6.912;2023-03-01T12:18:02;6.90;82.10
13652;DHT22;6899;51.546;6.912;2023-03-01T12:20:40;6.70;85.50
13652;DHT22;6899;51.546;6.912;2023-03-01T12:26:27;6.70;84.40
13652;DHT22;6899;51.546;6.912;2023-03-01T12:29:24;7.00;84.00
13652;DHT22;6899;51.546;6.912;2023-03-01T12:32:12;7.20;83.10
13652;DHT22;6899;51.546;6.912;2023-03-01T12:35:04;7.30;79.20
13652;DHT22;6899;51.546;6.912;2023-03-01T12:37:41;7.30;79.70
13652;DHT22;6899;51.546;6.912;2023-03-01T12:43:22;7.10;78.70
13652;DHT22;6899;51.546;6.912;2023-03-01T12:46:14;7.10;77.70
13652;DHT22;6899;51.546;6.912;2023-03-01T12:48:52;7.10;78.70
13652;DHT22;6899;51.546;6.912;2023-03-01T12:51:24;7.20;77.10
13652;DHT22;6899;51.546;6.912;2023-03-01T12:53:53;7.20;77.90
13652;DHT22;6899;51.546;6.912;2023-03-01T12:56:22;7.50;76.20
13652;DHT22;6899;51.546;6.912;2023-03-01T12:58:57;7.30;71.10
13652;DHT22;6899;51.546;6.912;2023-03-01T13:01:35;7.10;71.50
13652;DHT22;6899;51.546;6.912;2023-03-01T13:04:13;7.20;71.30
13652;DHT22;6899;51.546;6.912;2023-03-01T13:06:47;7.20;69.80
13652;DHT22;6899;51.546;6.912;2023-03-01T13:09:22;7.30;70.50
13652;DHT22;6899;51.546;6.912;2023-03-01T13:11:51;7.50;70.10
13652;DHT22;6899;51.546;6.912;2023-03-01T13:14:37;7.30;70.00
13652;DHT22;6899;51.546;6.912;2023-03-01T13:17:28;7.40;72.50
13652;DHT22;6899;51.546;6.912;2023-03-01T13:19:57;7.50;70.40
13652;DHT22;6899;51.546;6.912;2023-03-01T13:22:30;7.50;71.60
13652;DHT22;6899;51.546;6.912;2023-03-01T13:25:02;7.60;72.80
13652;DHT22;6899;51.546;6.912;2023-03-01T13:27:32;7.80;72.70
13652;DHT22;6899;51.546;6.912;2023-03-01T13:29:59;7.60;70.10
13652;DHT22;6899;51.546;6.912;2023-03-01T13:32:30;7.60;71.20
13652;DHT22;6899;51.546;6.912;2023-03-01T13:34:59;7.40;69.10
13652;DHT22;6899;51.546;6.912;2023-03-01T13:37:30;7.40;70.70
13652;DHT22;6899;51.546;6.912;2023-03-01T13:40:00;7.50;71.10
13652;DHT22;6899;51.546;6.912;2023-03-01T13:42:42;7.50;71.10
13652;DHT22;6899;51.546;6.912;2023-03-01T13:45:19;7.50;71.30
13652;DHT22;6899;51.546;6.912;2023-03-01T13:47:48;7.60;69.30
13652;DHT22;6899;51.546;6.912;2023-03-01T13:50:20;7.60;68.80
13652;DHT22;6899;51.546;6.912;2023-03-01T13:52:52;7.50;68.70
13652;DHT22;6899;51.546;6.912;2023-03-01T13:55:23;7.40;68.70
13652;DHT22;6899;51.546;6.912;2023-03-01T13:57:54;7.40;69.50
13652;DHT22;6899;51.546;6.912;2023-03-01T14:00:28;7.30;69.40
13652;DHT22;6899;51.546;6.912;2023-03-01T14:03:08;7.30;70.30
13652;DHT22;6899;51.546;6.912;2023-03-01T14:05:36;7.40;71.20
13652;DHT22;6899;51.546;6.912;2023-03-01T14:08:14;7.50;70.70
13652;DHT22;6899;51.546;6.912;2023-03-01T14:10:53;7.50;68.80
13652;DHT22;6899;51.546;6.912;2023-03-01T14:13:33;7.40;67.10
13652;DHT22;6899;51.546;6.912;2023-03-01T14:16:14;7.40;68.40
13652;DHT22;6899;51.546;6.912;2023-03-01T14:18:51;7.20;67.00
13652;DHT22;6899;51.546;6.912;2023-03-01T14:21:23;7.00;68.50
13652;DHT22;6899;51.546;6.912;2023-03-01T14:23:52;7.00;68.40
13652;DHT22;6899;51.546;6.912;2023-03-01T14:26:21;7.00;69.90
13652;DHT22;6899;51.546;6.912;2023-03-01T14:28:48;7.10;66.60
13652;DHT22;6899;51.546;6.912;2023-03-01T14:31:34;7.00;66.70
13652;DHT22;6899;51.546;6.912;2023-03-01T14:34:02;7.00;67.80
13652;DHT22;6899;51.546;6.912;2023-03-01T14:36:30;6.90;67.60
13652;DHT22;6899;51.546;6.912;2023-03-01T14:38:59;7.00;69.00
13652;DHT22;6899;51.546;6.912;2023-03-01T14:41:33;7.10;69.30
13652;DHT22;6899;51.546;6.912;2023-03-01T14:44:03;7.10;69.10
13652;DHT22;6899;51.546;6.912;2023-03-01T14:46:33;7.00;68.20
13652;DHT22;6899;51.546;6.912;2023-03-01T14:49:04;7.00;68.50
13652;DHT22;6899;51.546;6.912;2023-03-01T14:51:36;7.00;68.00
13652;DHT22;6899;51.546;6.912;2023-03-01T14:54:11;7.10;70.60
13652;DHT22;6899;51.546;6.912;2023-03-01T14:56:44;6.90;67.80
13652;DHT22;6899;51.546;6.912;2023-03-01T14:59:11;6.90;68.90
13652;DHT22;6899;51.546;6.912;2023-03-01T15:01:39;6.80;69.60
13652;DHT22;6899;51.546;6.912;2023-03-01T15:04:10;6.90;69.50
13652;DHT22;6899;51.546;6.912;2023-03-01T15:06:37;6.80;69.20
13652;DHT22;6899;51.546;6.912;2023-03-01T15:09:06;6.70;69.20
13652;DHT22;6899;51.546;6.912;2023-03-01T15:11:35;6.80;69.50
13652;DHT22;6899;51.546;6.912;2023-03-01T15:17:21;6.70;69.60
13652;DHT22;6899;51.546;6.912;2023-03-01T15:19:53;6.60;69.70
13652;DHT22;6899;51.546;6.912;2023-03-01T15:22:21;6.60;69.80
13652;DHT22;6899;51.546;6.912;2023-03-01T15:24:52;6.60;69.60
13652;DHT22;6899;51.546;6.912;2023-03-01T15:27:21;6.60;68.10
13652;DHT22;6899;51.546;6.912;2023-03-01T15:29:50;6.70;68.80
13652;DHT22;6899;51.546;6.912;2023-03-01T15:32:28;6.70;69.60
13652;DHT22;6899;51.546;6.912;2023-03-01T15:35:39;6.60;70.10
13652;DHT22;6899;51.546;6.912;2023-03-01T15:38:26;6.60;69.10
13652;DHT22;6899;51.546;6.912;2023-03-01T15:40:55;6.50;70.10
13652;DHT22;6899;51.546;6.912;2023-03-01T15:43:40;6.50;70.10
13652;DHT22;6899;51.546;6.912;2023-03-01T15:46:26;6.40;69.90
13652;DHT22;6899;51.546;6.912;2023-03-01T15:48:56;6.40;70.70
13652;DHT22;6899;51.546;6.912;2023-03-01T15:51:31;6.30;70.60
13652;DHT22;6899;51.546;6.912;2023-03-01T15:54:05;6.30;70.80
13652;DHT22;6899;51.546;6.912;2023-03-01T15:56:41;6.30;71.20
13652;DHT22;6899;51.546;6.912;2023-03-01T15:59:12;6.20;72.50
13652;DHT22;6899;51.546;6.912;2023-03-01T16:01:40;6.20;73.40
13652;DHT22;6899;51.546;6.912;2023-03-01T16:04:10;6.20;73.80
13652;DHT22;6899;51.546;6.912;2023-03-01T16:06:40;6.10;75.30
13652;DHT22;6899;51.546;6.912;2023-03-01T16:09:07;6.00;75.20
13652;DHT22;6899;51.546;6.912;2023-03-01T16:11:35;5.90;76.10
13652;DHT22;6899;51.546;6.912;2023-03-01T16:14:08;5.90;75.40
13652;DHT22;6899;51.546;6.912;2023-03-01T16:16:35;5.70;74.60
13652;DHT22;6899;51.546;6.912;2023-03-01T16:19:07;5.60;75.90
13652;DHT22;6899;51.546;6.912;2023-03-01T16:21:36;5.50;76.40
13652;DHT22;6899;51.546;6.912;2023-03-01T16:24:04;5.40;77.30
13652;DHT22;6899;51.546;6.912;2023-03-01T16:26:35;5.20;78.10
13652;DHT22;6899;51.546;6.912;2023-03-01T16:29:05;5.20;78.60
13652;DHT22;6899;51.546;6.912;2023-03-01T16:31:34;5.10;79.20
13652;DHT22;6899;51.546;6.912;2023-03-01T16:34:01;5.10;79.50
13652;DHT22;6899;51.546;6.912;2023-03-01T16:36:28;5.10;78.90
13652;DHT22;6899;51.546;6.912;2023-03-01T16:39:00;5.10;79.70
13652;DHT22;6899;51.546;6.912;2023-03-01T16:41:28;5.10;79.70
13652;DHT22;6899;51.546;6.912;2023-03-01T16:43:58;5.00;79.80
13652;DHT22;6899;51.546;6.912;2023-03-01T16:46:30;4.90;80.40
13652;DHT22;6899;51.546;6.912;2023-03-01T16:48:57;4.80;80.80
13652;DHT22;6899;51.546;6.912;2023-03-01T16:51:24;4.80;80.20
13652;DHT22;6899;51.546;6.912;2023-03-01T16:53:51;4.80;80.80